Whale Point, California Weather observations

Data are for observation ending at time listed.
 Day   Time    Ave.   Ave.  Ave.  Vector   Max.   Stn.    Total    Solar   Ave.  
  of    of     Air    Rel.  Wind   Wind    Wind   Baro.  Precip.   Rad.    Soil  
Year   Day     Temp.  Hum.  Speed  Dir.    Gust   Pres.                    Temp. 
2016   (PST)    F      %     mph   deg.    mph     mb.     in.     W/m2     F   
------------------------------------------------------------------------------
 336   19:40   54.6    41    7.7    40     18.3   997.0    0.00       0    56.6
 336   19:50   54.4    41    6.7     5     15.1   997.0    0.00       0    56.6
 336   20:00   54.3    41    7.8    19     14.8   997.3    0.00       0    56.5
 336   20:10   54.0    41    8.2    27     11.8   997.3    0.00       0    56.5
 336   20:20   53.3    42    5.8    13      9.1   997.3    0.00       0    56.4
 336   20:30   53.2    41    4.1    12      8.2   997.0    0.00       0    56.3
 336   20:40   53.4    40    1.3     3      3.7   997.0    0.00       0    56.3
 336   20:50   53.1    39    2.6     7      5.7   997.0    0.00       0    56.2
 336   21:00   52.5    38    4.0   356      7.4   997.0    0.00       0    56.1
 336   21:10   52.9    34    4.9   339      9.3   997.0    0.00       0    56.0
 336   21:20   52.6    42    2.9   331      5.5   997.0    0.00       0    55.9
 336   21:30   53.2    33    8.5     7     17.4   997.3    0.00       0    55.9
 336   21:40   54.6    29    5.5   338     10.8   997.3    0.00       0    55.8
 336   21:50   54.0    29    9.7   356     15.0   997.3    0.00       0    55.7
 336   22:00   54.6    28    9.5   355     18.9   997.3    0.00       0    55.6
 336   22:10   55.0    27   11.8   354     22.0   997.3    0.00       0    55.5
 336   22:20   55.7    26   10.9   353     25.7   997.3    0.00       0    55.5
 336   22:30   55.4    26    8.4   355     18.3   997.6    0.00       0    55.4
 336   22:40   55.0    27    7.3   344     16.5   997.6    0.00       0    55.3
 336   22:50   54.5    28    4.5   327     11.7   997.6    0.00       0    55.3
 336   23:00   54.7    27    7.9   350     16.0   997.6    0.00       0    55.2
 336   23:10   54.9    27    8.0   356     15.1   997.3    0.00       0    55.1
 336   23:20   54.7    28    7.9   360     17.6   997.3    0.00       0    55.0
 336   23:30   54.6    28   10.8     2     20.4   997.3    0.00       0    55.0
 336   23:40   54.7    28    6.2   329     17.1   997.3    0.00       0    54.9
 336   23:50   54.5    28    5.2   306     13.8   997.0    0.00       0    54.8
 337    0:00   54.3    29    7.1   348     16.4   997.3    0.00       0    54.7
 337    0:10   54.3    28    4.8   339     10.9   997.3    0.00       0    54.7
 337    0:20   54.0    29    4.1   306      9.3   997.3    0.00       0    54.6
 337    0:30   54.1    38    4.2   298     11.8   997.0    0.00       0    54.5
 337    0:40   52.4    39    2.0     2      7.5   997.0    0.00       0    54.5
 337    0:50   53.7    30    2.9   294      9.0   996.6    0.00       0    54.4
 337    1:00   52.5    43    1.7   151      4.1   996.6    0.00       0    54.3
 337    1:10   50.9    48    1.9   121      6.2   996.6    0.00       0    54.2
 337    1:20   50.3    57    1.1    88      3.2   996.6    0.00       0    54.2
 337    1:30   50.8    54    1.7    70      4.6   996.6    0.00       0    54.1
 337    1:40   51.0    50    1.4    69      4.0   996.3    0.00       0    54.0
 337    1:50   50.9    46    1.4    91      2.9   996.3    0.00       0    53.9
 337    2:00   50.4    45    0.8   349      3.1   996.3    0.00       0    53.9
 337    2:10   51.5    37    1.8   152      4.8   996.3    0.00       0    53.8
 337    2:20   51.8    46    2.0   199      4.5   996.3    0.00       0    53.8
 337    2:30   51.0    47    1.4   174      4.3   996.3    0.00       0    53.7
 337    2:40   52.0    37    1.5   200      5.0   996.3    0.00       0    53.6
 337    2:50   52.1    36    1.9   164      5.2   996.6    0.00       0    53.6
 337    3:00   53.3    31    3.0   274      9.3   996.3    0.00       0    53.5
 337    3:10   53.5    29    3.2    12      9.3   996.3    0.00       0    53.4
 337    3:20   53.6    28    3.5    99     10.9   996.3    0.00       0    53.3
 337    3:30   53.4    28    3.0   192      8.3   996.3    0.00       0    53.3
 337    3:40   53.1    30    3.6   221      9.1   995.9    0.00       0    53.2
 337    3:50   52.6    33    2.9   161      8.3   996.3    0.00       0    53.2
 337    4:00   51.3    41    2.5   104      5.7   996.3    0.00       0    53.1
 337    4:10   51.0    39    1.5   108      5.5   996.6    0.00       0    53.0
 337    4:20   50.7    41    1.2   125      4.7   996.6    0.00       0    53.0
 337    4:30   49.9    45    3.8   173      7.8   996.6    0.00       0    52.9
 337    4:40   51.6    37    3.7   125      6.1   996.6    0.00       0    52.9
 337    4:50   52.7    29    4.0    63      9.9   996.6    0.00       0    52.8
 337    5:00   52.9    27    2.9    67      6.6   996.6    0.00       0    52.7
 337    5:10   53.1    26    3.1    49      9.9   996.6    0.00       0    52.7
 337    5:20   52.8    26    2.5   106      6.6   997.0    0.00       0    52.6
 337    5:30   52.2    28    2.3   355      7.7   997.0    0.00       0    52.6
 337    5:40   52.1    28    2.6    51      6.9   997.3    0.00       0    52.5
 337    5:50   52.3    27    5.1    57     10.2   997.0    0.00       0    52.4
 337    6:00   52.6    26    4.5    40     13.1   997.3    0.00       0    52.4
 337    6:10   52.4    27    6.2     8     11.6   997.6    0.00       0    52.3
 337    6:20   52.5    27    5.2   355     14.0   997.6    0.00       0    52.2
 337    6:30   52.0    27    3.7    12      9.6   998.0    0.00       0    52.2
 337    6:40   51.7    27    3.2    38      7.2   998.0    0.00       0    52.2
 337    6:50   51.9    27    0.7    61      2.6   998.0    0.00       1    52.1
 337    7:00   51.7    27    2.0   152      3.6   998.0    0.00       3    52.1
 337    7:10   52.0    27    2.3   215      5.0   998.0    0.00       6    52.0
 337    7:20   51.1    29    2.8   178      9.3   998.3    0.00       9    52.0
 337    7:30   52.6    25    2.8    89      6.2   998.3    0.00      12    51.9
 337    7:40   52.4    26    1.5   293      8.5   998.3    0.00      14    51.9
 337    7:50   52.5    25    1.2   298      3.6   998.6    0.00      16    51.8
 337    8:00   52.8    25    2.7    62      7.2   998.6    0.00      18    51.7
 337    8:10   52.7    25    2.9   307      8.3   998.6    0.00      19    51.7
 337    8:20   52.5    26    1.7   326      4.4   999.0    0.00      20    51.6
 337    8:30   52.7    26    3.9    13      8.6   999.0    0.00      21    51.6
 337    8:40   52.8    26    2.4   205      7.7   999.0    0.00      49    51.5
 337    8:50   53.8    25    1.5   224      4.1   999.3    0.00     283    51.5
 337    9:00   55.4    23    2.7    14     10.0   999.3    0.00     320    51.4
 337    9:10   55.3    22    5.4     9     15.8   999.3    0.00     351    51.4
 337    9:20   55.5    22    7.5    25     14.4   999.3    0.00     378    51.4
 337    9:30   55.9    21    6.4    13     13.2   999.7    0.00     403    51.4
 337    9:40   56.9    23    1.7   319      5.6   999.7    0.00     425    51.3
 337    9:50   56.9    20    4.6   341     10.1   999.7    0.00     447    51.3
 337   10:00   57.3    22    4.2     6     12.9   999.7    0.00     464    51.3
 337   10:10   56.9    42    5.2   199     12.1   999.7    0.00     483    51.2
 337   10:20   55.0    49    4.4   206      7.1   999.7    0.00     501    51.2
 337   10:30   55.6    47    3.8   194      6.6   999.7    0.00     517    51.2
 337   10:40   55.2    49    5.1   216      8.7   999.7    0.00     531    51.2
 337   10:50   55.2    50    5.4   190      8.5   999.7    0.00     542    51.2
 337   11:00   56.1    42    4.6   190      8.0   999.7    0.00     553    51.2
 337   11:10   56.0    37    3.5   217      7.1   999.7    0.00     563    51.3
 337   11:20   57.2    38    4.0   186      7.2   999.7    0.00     570    51.3
 337   11:30   56.8    40    5.0   209      8.2   999.7    0.00     575    51.4
 337   11:40   57.0    44    5.0   216      6.9   999.3    0.00     578    51.4
 337   11:50   56.7    41    4.5   209      8.2   999.3    0.00     580    51.5
 337   12:00   56.6    42    5.3   219      7.8   999.3    0.00     580    51.6
 337   12:10   57.4    46    5.4   205      8.8   999.3    0.00     578    51.7
 337   12:20   57.5    52    5.9   209      8.8   999.0    0.00     575    51.7
 337   12:30   56.9    49    5.4   215      8.6   999.0    0.00     571    51.8
 337   12:40   57.0    51    4.8   210      7.8   999.0    0.00     565    51.9
 337   12:50   57.5    51    5.8   220      8.3   999.0    0.00     557    52.0
 337   13:00   56.7    50    5.5   221      8.2   998.6    0.00     546    52.1
 337   13:10   57.6    44    4.3   217      6.5   998.6    0.00     535    52.3
 337   13:20   58.4    39    4.7   210      7.2   998.6    0.00     522    52.4
 337   13:30   59.0    32    5.3   214      8.7   998.3    0.00     507    52.5
 337   13:40   58.7    31    4.6   224      7.1   998.3    0.00     490    52.6
 337   13:50   59.4    31    5.8   224      8.3   998.6    0.00     472    52.7
 337   14:00   58.9    28    5.2   222      7.0   998.6    0.00     451    52.9
 337   14:10   59.7    26    4.7   227      7.2   998.6    0.00     430    53.0
 337   14:20   60.1    26    4.1   225      7.2   998.6    0.00     408    53.2
 337   14:30   61.0    28    4.6   224      8.4   998.6    0.00     384    53.3
 337   14:40   60.8    28    5.5   232      8.1   998.6    0.00     359    53.5
 337   14:50   60.7    30    4.8   220      8.5   998.6    0.00     332    53.6
 337   15:00   59.7    40    3.6   229      6.8   998.6    0.00     307    53.8
 337   15:10   59.9    32    3.4   231      5.8   998.6    0.00     278    53.9
 337   15:20   58.9    41    4.5   195      8.3   998.6    0.00     249    54.1
 337   15:30   59.7    35    3.1   219      6.8   998.6    0.00     221    54.2
 337   15:40   58.8    37    4.0   216      6.4   998.6    0.00     193    54.4
 337   15:50   58.9    39    3.5   220      6.2   998.6    0.00     165    54.5
 337   16:00   57.6    44    3.5   216      8.3   998.6    0.00     139    54.7
 337   16:10   57.6    42    3.0   234      6.1   998.6    0.00     111    54.8
 337   16:20   56.5    44    1.8     7      4.9   998.6    0.00      85    54.9
 337   16:30   55.2    40    1.9     5      5.8   998.6    0.00      61    55.0
 337   16:40   56.9    39    1.2   294      3.6   999.0    0.00      38    55.1
 337   16:50   55.5    50    1.7   196      4.7   999.0    0.00      16    55.2
 337   17:00   53.8    48    2.2    54      5.3   999.0    0.00       4    55.3
 337   17:10   56.1    27    3.4    62      7.5   999.0    0.00       1    55.4
 337   17:20   56.8    26    2.7    71      7.3   999.0    0.00       0    55.5
 337   17:30   56.8    25    4.2    75      7.1   999.3    0.00       0    55.5
 337   17:40   56.4    26    5.0    56      9.6   999.3    0.00       0    55.6
 337   17:50   56.5    26    3.5    57     11.9   999.3    0.00       0    55.6
 337   18:00   56.6    25    2.3    47      3.9   999.3    0.00       0    55.6
 337   18:10   56.5    26    2.6    56      7.7   999.3    0.00       0    55.7
 337   18:20   56.3    26    2.6    28      5.2   999.7    0.00       0    55.7
 337   18:30   56.5    26    5.9    26     11.8   999.7    0.00       0    55.7
 337   18:40   55.7    27    3.7    16      8.6   999.7    0.00       0    55.6
 337   18:50   55.6    27    5.8    34      9.2   999.7    0.00       0    55.6
 337   19:00   55.9    26    5.6    16     11.6   1000.0    0.00       0    55.6
 337   19:10   56.2    26    8.5    33     12.2   999.7    0.00       0    55.5
 337   19:20   56.0    27    6.6    10     10.6   999.7    0.00       0    55.5
 337   19:30   54.9    28    8.3    22     12.1   999.7    0.00       0    55.5

Return to Whale Point graphs page.


Western Regional Climate Center,wrcc@dri.edu